createdAt,value
2018-05-16T00:01:14.247Z,10.30
2018-05-16T00:03:46.803Z,9.50
2018-05-16T00:06:19.334Z,8.35
2018-05-16T00:08:51.834Z,8.60
2018-05-16T00:11:24.356Z,9.52
2018-05-16T00:13:56.859Z,9.65
2018-05-16T00:16:29.379Z,10.07
2018-05-16T00:19:01.903Z,10.07
2018-05-16T00:21:34.448Z,10.80
2018-05-16T00:24:07.030Z,9.40
2018-05-16T00:26:39.587Z,9.88
2018-05-16T00:29:12.094Z,10.13
2018-05-16T00:31:44.622Z,10.10
2018-05-16T00:34:17.128Z,9.37
2018-05-16T00:36:49.673Z,9.90
2018-05-16T00:39:22.184Z,9.80
2018-05-16T00:41:54.707Z,9.63
2018-05-16T00:44:27.215Z,8.85
2018-05-16T00:46:59.733Z,11.50
2018-05-16T00:49:32.249Z,10.10
2018-05-16T00:52:04.849Z,10.63
2018-05-16T00:54:37.442Z,10.10
2018-05-16T00:57:09.988Z,9.80
2018-05-16T00:59:42.506Z,9.37
2018-05-16T01:02:15.046Z,10.20
2018-05-16T01:04:47.564Z,10.17
2018-05-16T01:07:20.111Z,9.70
2018-05-16T01:09:52.654Z,9.07
2018-05-16T01:12:25.193Z,9.60
2018-05-16T01:14:57.696Z,9.03
2018-05-16T01:17:30.231Z,11.63
2018-05-16T01:20:02.749Z,9.43
2018-05-16T01:22:36.752Z,9.83
2018-05-16T01:25:09.288Z,10.50
2018-05-16T01:27:41.837Z,11.33
2018-05-16T01:30:14.367Z,9.17
2018-05-16T01:32:46.907Z,9.10
2018-05-16T01:35:19.422Z,10.00
2018-05-16T01:37:51.988Z,10.70
2018-05-16T01:40:24.515Z,9.87
2018-05-16T01:42:57.066Z,8.87
2018-05-16T01:45:29.621Z,10.00
2018-05-16T01:48:02.165Z,10.20
2018-05-16T01:50:34.692Z,9.43
2018-05-16T01:53:07.341Z,8.90
2018-05-16T01:55:40.091Z,8.53
2018-05-16T01:58:12.640Z,9.20
2018-05-16T02:00:45.162Z,10.07
2018-05-16T02:03:17.690Z,9.10
2018-05-16T02:05:50.204Z,8.47
2018-05-16T02:08:22.732Z,10.17
2018-05-16T02:10:55.276Z,9.37
2018-05-16T02:13:27.796Z,9.17
2018-05-16T02:16:00.311Z,9.97
2018-05-16T02:18:32.836Z,10.43
2018-05-16T02:21:06.771Z,9.73
2018-05-16T02:23:39.535Z,10.03
2018-05-16T02:26:12.092Z,9.60
2018-05-16T02:28:44.632Z,8.77
2018-05-16T02:31:17.154Z,8.20
2018-05-16T02:33:49.697Z,8.37
2018-05-16T02:36:22.210Z,8.23
2018-05-16T02:38:55.495Z,9.57
2018-05-16T02:41:28.009Z,8.00
2018-05-16T02:44:00.563Z,8.63
2018-05-16T02:46:33.090Z,8.17
2018-05-16T02:49:05.650Z,7.77
2018-05-16T02:51:38.193Z,7.90
2018-05-16T02:54:10.745Z,8.37
2018-05-16T02:56:43.323Z,8.87
2018-05-16T02:59:15.853Z,8.87
2018-05-16T03:01:48.389Z,8.60
2018-05-16T03:04:20.907Z,8.70
2018-05-16T03:06:53.445Z,8.43
2018-05-16T03:09:25.981Z,8.90
2018-05-16T03:11:58.518Z,8.47
2018-05-16T03:14:31.504Z,8.10
2018-05-16T03:17:04.032Z,10.60
2018-05-16T03:19:36.862Z,9.27
2018-05-16T03:22:09.390Z,9.70
2018-05-16T03:24:41.897Z,9.30
2018-05-16T03:27:14.447Z,9.73
2018-05-16T03:29:46.963Z,8.63
2018-05-16T03:32:19.480Z,10.07
2018-05-16T03:34:51.992Z,9.40
2018-05-16T03:37:24.516Z,8.60
2018-05-16T03:39:57.036Z,8.67
2018-05-16T03:42:29.581Z,8.77
2018-05-16T03:45:02.074Z,8.77
2018-05-16T03:47:34.614Z,8.03
2018-05-16T03:50:07.593Z,8.53
2018-05-16T03:52:40.130Z,9.37
2018-05-16T03:55:12.707Z,9.30
2018-05-16T04:01:04.219Z,8.73
2018-05-16T04:03:48.676Z,10.37
2018-05-16T04:06:21.181Z,9.43
2018-05-16T04:08:53.719Z,9.40
2018-05-16T04:11:26.232Z,10.03
2018-05-16T04:13:58.756Z,10.90
2018-05-16T04:16:31.258Z,8.90
2018-05-16T04:19:03.786Z,9.73
2018-05-16T04:21:37.690Z,9.10
2018-05-16T04:24:10.231Z,9.10
2018-05-16T04:26:42.776Z,9.50
2018-05-16T04:29:15.320Z,9.57
2018-05-16T04:31:47.869Z,9.60
2018-05-16T04:34:20.417Z,9.90
2018-05-16T04:36:52.928Z,8.80
2018-05-16T04:39:25.481Z,10.67
2018-05-16T04:41:58.025Z,9.63
2018-05-16T04:44:30.571Z,10.33
2018-05-16T04:47:03.100Z,12.17
2018-05-16T04:49:35.761Z,11.70
2018-05-16T04:52:08.298Z,12.47
2018-05-16T04:54:40.902Z,9.80
2018-05-16T04:57:13.449Z,10.43
2018-05-16T04:59:45.997Z,10.10
2018-05-16T05:02:18.531Z,9.90
2018-05-16T05:04:51.081Z,10.17
2018-05-16T05:07:23.596Z,10.40
2018-05-16T05:09:56.156Z,10.83
2018-05-16T05:12:28.685Z,10.33
2018-05-16T05:15:01.225Z,11.07
2018-05-16T05:17:33.743Z,13.23
2018-05-16T05:20:06.949Z,12.63
2018-05-16T05:22:39.501Z,11.83
2018-05-16T05:25:12.037Z,12.50
2018-05-16T05:27:44.627Z,11.87
2018-05-16T05:30:17.235Z,13.50
2018-05-16T05:32:49.746Z,13.43
2018-05-16T05:35:22.290Z,12.70
2018-05-16T05:37:54.828Z,12.67
2018-05-16T05:40:27.343Z,12.80
2018-05-16T05:42:59.887Z,12.57
2018-05-16T05:45:32.399Z,11.10
2018-05-16T05:48:06.225Z,12.13
2018-05-16T05:50:38.808Z,10.97
2018-05-16T05:53:11.367Z,11.13
2018-05-16T05:55:43.939Z,11.77
2018-05-16T05:58:16.510Z,11.77
2018-05-16T06:00:49.051Z,13.83
2018-05-16T06:03:21.620Z,12.73
2018-05-16T06:05:54.151Z,12.48
2018-05-16T06:08:26.693Z,11.82
2018-05-16T06:10:59.233Z,12.98
2018-05-16T06:13:31.800Z,11.52
2018-05-16T06:16:04.386Z,12.15
2018-05-16T06:18:36.945Z,12.37
2018-05-16T06:21:09.462Z,13.57
2018-05-16T06:23:42.023Z,15.20
2018-05-16T06:26:14.536Z,13.68
2018-05-16T06:28:47.089Z,15.80
2018-05-16T06:31:19.605Z,17.75
2018-05-16T06:33:52.162Z,17.42
2018-05-16T06:36:24.682Z,17.35
2018-05-16T06:38:57.220Z,16.98
2018-05-16T06:41:29.768Z,18.17
2018-05-16T06:44:02.297Z,18.40
2018-05-16T06:46:35.002Z,18.10
2018-05-16T06:49:07.559Z,18.50
2018-05-16T06:51:40.097Z,16.83
2018-05-16T06:54:12.665Z,15.20
2018-05-16T06:56:45.191Z,16.00
2018-05-16T06:59:17.756Z,16.50
2018-05-16T07:01:50.279Z,18.48
2018-05-16T07:04:22.832Z,17.10
2018-05-16T07:06:55.344Z,15.55
2018-05-16T07:09:27.894Z,14.95
2018-05-16T07:12:00.408Z,14.30
2018-05-16T07:14:32.941Z,13.00
2018-05-16T07:17:05.676Z,13.65
2018-05-16T07:19:38.668Z,10.52
2018-05-16T07:22:11.560Z,11.57
2018-05-16T07:24:44.812Z,10.55
2018-05-16T07:27:17.333Z,11.00
2018-05-16T07:29:49.880Z,10.77
2018-05-16T07:32:22.463Z,10.15
2018-05-16T07:34:54.977Z,10.20
2018-05-16T07:37:27.489Z,10.88
2018-05-16T07:40:00.064Z,10.45
2018-05-16T07:42:32.583Z,10.52
2018-05-16T07:45:06.415Z,9.85
2018-05-16T07:47:39.804Z,9.25
2018-05-16T07:50:12.360Z,9.48
2018-05-16T07:52:44.896Z,10.10
2018-05-16T07:55:17.505Z,9.25
2018-05-16T07:57:50.107Z,9.18
2018-05-16T08:00:22.621Z,10.57
2018-05-16T08:02:55.152Z,9.40
2018-05-16T08:05:27.692Z,9.75
2018-05-16T08:08:00.218Z,9.00
2018-05-16T08:10:32.767Z,9.80
2018-05-16T08:13:05.486Z,8.85
2018-05-16T08:15:38.053Z,9.20
2018-05-16T08:18:10.599Z,10.45
2018-05-16T08:20:43.180Z,9.32
2018-05-16T08:23:15.703Z,9.07
2018-05-16T08:25:48.261Z,8.98
2018-05-16T08:28:20.795Z,8.93
2018-05-16T08:30:53.327Z,9.45
2018-05-16T08:33:25.829Z,8.45
2018-05-16T08:35:58.355Z,9.32
2018-05-16T08:38:30.879Z,8.45
2018-05-16T08:41:03.409Z,8.32
2018-05-16T08:43:37.074Z,9.15
2018-05-16T08:46:09.638Z,9.32
2018-05-16T08:48:42.172Z,9.25
2018-05-16T08:51:14.710Z,8.18
2018-05-16T08:53:47.317Z,8.25
2018-05-16T08:56:19.823Z,8.65
2018-05-16T08:58:52.354Z,8.73
2018-05-16T09:01:24.859Z,9.00
2018-05-16T09:03:57.382Z,9.55
2018-05-16T09:06:29.900Z,14.80
2018-05-16T09:09:02.439Z,8.93
2018-05-16T09:11:35.778Z,8.20
2018-05-16T09:14:08.318Z,7.75
2018-05-16T09:16:40.877Z,11.02
2018-05-16T09:19:13.419Z,8.52
2018-05-16T09:21:45.966Z,7.62
2018-05-16T09:24:18.490Z,7.57
2018-05-16T09:26:51.016Z,8.50
2018-05-16T09:29:23.541Z,6.75
2018-05-16T09:31:56.045Z,7.82
2018-05-16T09:34:28.568Z,6.65
2018-05-16T09:37:01.087Z,6.28
2018-05-16T09:39:33.607Z,8.10
2018-05-16T09:42:06.757Z,6.28
2018-05-16T09:44:39.297Z,5.43
2018-05-16T09:47:11.866Z,6.00
2018-05-16T09:49:44.412Z,5.80
2018-05-16T09:52:16.924Z,6.50
2018-05-16T09:54:49.465Z,5.22
2018-05-16T09:57:21.971Z,5.60
2018-05-16T09:59:54.496Z,5.18
2018-05-16T10:02:27.002Z,5.12
2018-05-16T10:04:59.545Z,4.60
2018-05-16T10:07:32.047Z,5.37
2018-05-16T10:10:04.632Z,4.75
2018-05-16T10:12:37.207Z,5.68
2018-05-16T10:15:09.825Z,5.30
2018-05-16T10:17:42.585Z,4.75
2018-05-16T10:20:15.162Z,5.03
2018-05-16T10:22:47.631Z,5.82
2018-05-16T10:25:20.149Z,4.85
2018-05-16T10:27:52.657Z,5.57
2018-05-16T10:30:25.199Z,5.28
2018-05-16T10:32:57.703Z,5.28
2018-05-16T10:35:30.237Z,5.95
2018-05-16T10:38:02.741Z,5.22
2018-05-16T10:40:35.671Z,5.15
2018-05-16T10:43:08.297Z,4.90
2018-05-16T10:45:40.843Z,5.22
2018-05-16T10:48:13.367Z,5.22
2018-05-16T10:50:45.910Z,5.07
2018-05-16T10:53:18.421Z,5.60
2018-05-16T10:55:50.947Z,5.05
2018-05-16T10:58:23.443Z,5.55
2018-05-16T11:00:55.969Z,5.50
2018-05-16T11:03:28.591Z,5.53
2018-05-16T11:06:01.039Z,5.18
2018-05-16T11:08:33.540Z,5.45
2018-05-16T11:11:06.465Z,4.90
2018-05-16T11:13:38.997Z,6.15
2018-05-16T11:16:11.525Z,5.53
2018-05-16T11:18:44.096Z,5.78
2018-05-16T11:21:16.634Z,5.10
2018-05-16T11:23:49.183Z,5.20
2018-05-16T11:26:21.731Z,5.97
2018-05-16T11:28:54.243Z,6.18
2018-05-16T11:31:26.769Z,6.22
2018-05-16T11:33:59.291Z,5.82
2018-05-16T11:36:31.823Z,5.80
2018-05-16T11:39:04.334Z,6.22
2018-05-16T11:41:37.095Z,6.15
2018-05-16T11:44:09.740Z,5.28
2018-05-16T11:46:42.255Z,4.65
2018-05-16T11:49:14.811Z,5.50
2018-05-16T11:51:47.361Z,5.35
2018-05-16T11:54:19.876Z,5.53
2018-05-16T11:56:52.404Z,5.50
2018-05-16T11:59:24.900Z,5.28
2018-05-16T12:01:57.421Z,4.78
2018-05-16T12:04:29.947Z,5.28
2018-05-16T12:07:02.462Z,5.37
2018-05-16T12:09:35.058Z,5.07
2018-05-16T12:12:07.836Z,6.20
2018-05-16T12:14:40.416Z,5.97
2018-05-16T12:17:13.033Z,7.15
2018-05-16T12:19:45.559Z,6.12
2018-05-16T12:22:18.085Z,6.25
2018-05-16T12:24:50.601Z,6.70
2018-05-16T12:27:23.125Z,7.78
2018-05-16T12:29:55.649Z,7.57
2018-05-16T12:32:28.178Z,7.25
2018-05-16T12:35:00.703Z,7.22
2018-05-16T12:37:33.218Z,7.78
2018-05-16T12:40:05.817Z,8.10
2018-05-16T12:45:42.996Z,8.68
2018-05-16T12:48:15.585Z,8.88
2018-05-16T12:50:48.111Z,8.77
2018-05-16T12:53:20.620Z,8.90
2018-05-16T12:55:53.145Z,9.68
2018-05-16T12:58:25.684Z,8.88
2018-05-16T13:00:58.209Z,8.95
2018-05-16T13:03:30.713Z,9.02
2018-05-16T13:06:03.229Z,8.75
2018-05-16T13:08:36.341Z,8.93
2018-05-16T13:11:08.890Z,9.50
2018-05-16T13:13:41.543Z,8.90
2018-05-16T13:16:14.676Z,9.15
2018-05-16T13:18:47.443Z,9.82
2018-05-16T13:21:19.968Z,9.63
2018-05-16T13:23:52.487Z,8.57
2018-05-16T13:26:25.009Z,8.38
2018-05-16T13:28:57.523Z,8.80
2018-05-16T13:31:30.041Z,8.63
2018-05-16T13:34:02.560Z,8.20
2018-05-16T13:36:35.141Z,8.68
2018-05-16T13:39:07.653Z,7.53
2018-05-16T13:41:40.340Z,9.07
2018-05-16T13:44:13.075Z,8.25
2018-05-16T13:46:45.600Z,8.02
2018-05-16T13:49:18.212Z,8.73
2018-05-16T13:51:50.731Z,9.07
2018-05-16T13:54:23.241Z,9.32
2018-05-16T13:56:55.765Z,8.77
2018-05-16T13:59:28.260Z,8.57
2018-05-16T14:02:00.786Z,9.40
2018-05-16T14:04:33.285Z,8.32
2018-05-16T14:07:06.053Z,8.23
2018-05-16T14:09:38.563Z,8.15
2018-05-16T14:12:11.096Z,8.75
2018-05-16T14:14:43.606Z,7.95
2018-05-16T14:17:16.163Z,8.00
2018-05-16T14:19:48.668Z,7.75
2018-05-16T14:22:21.182Z,7.62
2018-05-16T14:24:53.691Z,8.07
2018-05-16T14:27:26.209Z,7.62
2018-05-16T14:29:58.727Z,8.40
2018-05-16T14:32:31.246Z,8.43
2018-05-16T14:35:03.748Z,7.57
2018-05-16T14:37:36.292Z,7.80
2018-05-16T14:40:09.105Z,7.68
2018-05-16T14:42:41.773Z,7.78
2018-05-16T14:45:14.225Z,7.75
2018-05-16T14:47:46.793Z,8.82
2018-05-16T14:50:19.346Z,7.95
2018-05-16T14:52:51.874Z,8.13
2018-05-16T14:55:24.415Z,7.82
2018-05-16T14:57:56.944Z,8.32
2018-05-16T15:00:29.461Z,7.80
2018-05-16T15:03:01.988Z,8.27
2018-05-16T15:05:34.501Z,7.75
2018-05-16T15:08:07.301Z,7.25
2018-05-16T15:10:39.821Z,7.75
2018-05-16T15:13:12.358Z,7.55
2018-05-16T15:15:44.894Z,8.20
2018-05-16T15:18:17.429Z,7.50
2018-05-16T15:20:49.967Z,6.90
2018-05-16T15:23:22.467Z,7.55
2018-05-16T15:25:54.991Z,7.45
2018-05-16T15:28:27.507Z,7.72
2018-05-16T15:31:00.041Z,7.20
2018-05-16T15:33:32.547Z,7.05
2018-05-16T15:36:05.360Z,7.32
2018-05-16T15:38:38.207Z,7.25
2018-05-16T15:41:10.756Z,6.30
2018-05-16T15:43:43.273Z,7.15
2018-05-16T15:46:15.831Z,7.05
2018-05-16T15:48:48.322Z,7.05
2018-05-16T15:51:20.840Z,6.60
2018-05-16T15:53:53.343Z,7.18
2018-05-16T15:56:25.881Z,6.07
2018-05-16T15:58:58.618Z,7.32
2018-05-16T16:01:31.144Z,6.93
2018-05-16T16:04:03.647Z,7.07
2018-05-16T16:06:36.316Z,6.10
2018-05-16T16:09:09.106Z,7.10
2018-05-16T16:11:41.786Z,6.93
2018-05-16T16:14:14.316Z,6.93
2018-05-16T16:16:46.866Z,6.47
2018-05-16T16:19:19.369Z,7.70
2018-05-16T16:21:51.906Z,7.55
2018-05-16T16:24:24.526Z,7.20
2018-05-16T16:26:57.051Z,7.37
2018-05-16T16:29:29.551Z,7.55
2018-05-16T16:32:02.084Z,7.00
2018-05-16T16:34:34.603Z,7.68
2018-05-16T16:37:08.014Z,7.37
2018-05-16T16:39:40.523Z,6.57
2018-05-16T16:42:13.420Z,7.43
2018-05-16T16:44:46.132Z,7.97
2018-05-16T16:47:18.619Z,8.57
2018-05-16T16:49:51.131Z,7.28
2018-05-16T16:52:23.656Z,7.87
2018-05-16T16:54:56.172Z,7.40
2018-05-16T16:57:28.691Z,7.28
2018-05-16T17:00:01.290Z,7.20
2018-05-16T17:02:33.745Z,7.22
2018-05-16T17:05:06.394Z,7.15
2018-05-16T17:07:39.003Z,7.35
2018-05-16T17:10:11.765Z,7.57
2018-05-16T17:12:44.366Z,6.68
2018-05-16T17:15:16.931Z,7.12
2018-05-16T17:17:49.467Z,6.75
2018-05-16T17:20:22.019Z,6.95
2018-05-16T17:22:54.523Z,7.30
2018-05-16T17:25:27.026Z,6.78
2018-05-16T17:27:59.540Z,7.40
2018-05-16T17:30:32.054Z,6.70
2018-05-16T17:33:04.597Z,5.97
2018-05-16T17:35:37.150Z,6.18
2018-05-16T17:38:09.854Z,6.80
2018-05-16T17:40:42.419Z,6.12
2018-05-16T17:43:14.994Z,6.80
2018-05-16T17:45:47.546Z,6.05
2018-05-16T17:48:20.071Z,5.15
2018-05-16T17:50:52.573Z,5.20
2018-05-16T17:53:25.101Z,5.07
2018-05-16T17:55:57.616Z,4.75
2018-05-16T17:58:30.153Z,5.00
2018-05-16T18:01:02.662Z,4.55
2018-05-16T18:03:35.579Z,4.22
2018-05-16T18:06:08.102Z,4.55
2018-05-16T18:08:40.783Z,3.90
2018-05-16T18:11:13.292Z,4.25
2018-05-16T18:13:58.411Z,4.25
2018-05-16T18:16:42.914Z,4.37
2018-05-16T18:19:15.476Z,4.20
2018-05-16T18:21:47.992Z,4.03
2018-05-16T18:24:20.531Z,3.92
2018-05-16T18:26:53.051Z,3.85
2018-05-16T18:29:25.618Z,4.20
2018-05-16T18:31:58.101Z,3.83
2018-05-16T18:34:30.788Z,4.62
2018-05-16T18:37:03.296Z,4.25
2018-05-16T18:39:35.870Z,4.15
2018-05-16T18:42:08.513Z,3.70
2018-05-16T18:44:41.108Z,4.32
2018-05-16T18:47:13.605Z,4.03
2018-05-16T18:49:46.128Z,4.20
2018-05-16T18:52:18.624Z,4.03
2018-05-16T18:54:51.147Z,4.35
2018-05-16T18:57:23.647Z,4.55
2018-05-16T18:59:56.185Z,4.68
2018-05-16T19:02:28.683Z,3.83
2018-05-16T19:05:01.209Z,4.62
2018-05-16T19:07:33.717Z,4.43
2018-05-16T19:10:06.293Z,4.47
2018-05-16T19:12:38.861Z,4.55
2018-05-16T19:15:11.586Z,4.45
2018-05-16T19:17:44.212Z,4.78
2018-05-16T19:20:16.709Z,4.20
2018-05-16T19:22:49.237Z,4.37
2018-05-16T19:25:21.737Z,5.07
2018-05-16T19:27:54.271Z,4.45
2018-05-16T19:30:26.772Z,4.95
2018-05-16T19:32:59.380Z,4.78
2018-05-16T19:35:31.832Z,4.68
2018-05-16T19:38:04.414Z,4.15
2018-05-16T19:40:37.361Z,4.57
2018-05-16T19:43:10.273Z,4.57
2018-05-16T19:45:42.776Z,4.50
2018-05-16T19:48:15.316Z,4.43
2018-05-16T19:50:47.824Z,4.37
2018-05-16T19:53:20.349Z,4.30
2018-05-16T19:55:52.857Z,4.45
2018-05-16T19:58:25.378Z,4.30
2018-05-16T20:00:57.883Z,4.22
2018-05-16T20:03:30.451Z,4.30
2018-05-16T20:06:02.957Z,4.47
2018-05-16T20:08:35.764Z,3.97
2018-05-16T20:11:08.474Z,3.78
2018-05-16T20:13:41.493Z,4.32
2018-05-16T20:16:14.005Z,4.53
2018-05-16T20:18:46.521Z,5.15
2018-05-16T20:21:19.020Z,5.32
2018-05-16T20:23:51.641Z,5.32
2018-05-16T20:26:24.069Z,6.85
2018-05-16T20:28:56.593Z,6.85
2018-05-16T20:31:29.100Z,5.95
2018-05-16T20:34:01.628Z,6.90
2018-05-16T20:36:34.130Z,7.85
2018-05-16T20:39:06.718Z,7.53
2018-05-16T20:41:39.432Z,8.48
2018-05-16T20:44:12.135Z,7.55
2018-05-16T20:46:44.650Z,7.10
2018-05-16T20:49:17.173Z,8.57
2018-05-16T20:51:49.684Z,8.35
2018-05-16T20:54:22.203Z,7.30
2018-05-16T20:56:54.700Z,7.40
2018-05-16T20:59:27.227Z,8.00
2018-05-16T21:01:59.727Z,7.50
2018-05-16T21:04:33.008Z,7.65
2018-05-16T21:07:05.563Z,8.13
2018-05-16T21:09:38.105Z,7.12
2018-05-16T21:12:10.690Z,7.72
2018-05-16T21:14:43.166Z,7.53
2018-05-16T21:17:15.675Z,7.62
2018-05-16T21:19:48.214Z,7.22
2018-05-16T21:22:20.725Z,7.40
2018-05-16T21:24:53.256Z,6.95
2018-05-16T21:27:25.766Z,6.82
2018-05-16T21:29:58.289Z,7.10
2018-05-16T21:32:30.806Z,7.20
2018-05-16T21:35:03.331Z,7.45
2018-05-16T21:37:35.836Z,6.95
2018-05-16T21:40:08.364Z,7.35
2018-05-16T21:42:40.909Z,6.97
2018-05-16T21:45:13.434Z,5.90
2018-05-16T21:47:45.937Z,6.30
2018-05-16T21:50:18.467Z,7.68
2018-05-16T21:52:50.973Z,6.43
2018-05-16T21:55:23.502Z,6.20
2018-05-16T21:57:55.997Z,6.28
2018-05-16T22:00:28.526Z,7.18
2018-05-16T22:03:01.032Z,6.78
2018-05-16T22:05:33.557Z,6.85
2018-05-16T22:08:06.071Z,6.20
2018-05-16T22:10:39.380Z,6.22
2018-05-16T22:13:11.882Z,6.65
2018-05-16T22:15:44.410Z,6.45
2018-05-16T22:18:16.927Z,6.40
2018-05-16T22:20:49.449Z,6.10
2018-05-16T22:23:21.959Z,6.60
2018-05-16T22:25:54.485Z,6.72
2018-05-16T22:28:26.995Z,6.70
2018-05-16T22:31:05.362Z,6.10
2018-05-16T22:33:43.471Z,6.65
2018-05-16T22:36:21.690Z,6.43
2018-05-16T22:38:59.902Z,7.20
2018-05-16T22:41:38.232Z,6.43
2018-05-16T22:44:16.915Z,6.55
2018-05-16T22:46:49.476Z,6.57
2018-05-16T22:49:22.067Z,6.55
2018-05-16T22:51:54.616Z,6.25
2018-05-16T22:54:27.205Z,6.62
2018-05-16T22:56:59.713Z,5.90
2018-05-16T22:59:32.235Z,6.05
2018-05-16T23:02:04.762Z,6.37
2018-05-16T23:04:37.964Z,7.00
2018-05-16T23:07:10.826Z,5.90
2018-05-16T23:09:43.421Z,6.40
2018-05-16T23:12:16.084Z,6.60
2018-05-16T23:14:48.612Z,5.68
2018-05-16T23:17:21.137Z,6.40
2018-05-16T23:19:53.679Z,6.28
2018-05-16T23:22:26.196Z,6.22
2018-05-16T23:24:58.730Z,7.00
2018-05-16T23:27:31.248Z,5.78
2018-05-16T23:30:03.768Z,5.65
2018-05-16T23:32:36.475Z,6.18
2018-05-16T23:35:09.265Z,5.97
2018-05-16T23:37:41.776Z,6.03
2018-05-16T23:40:14.447Z,5.72
2018-05-16T23:42:47.361Z,6.60
2018-05-16T23:45:19.897Z,7.10
2018-05-16T23:47:52.405Z,5.70
2018-05-16T23:50:24.935Z,5.80
2018-05-16T23:52:57.510Z,5.85
2018-05-16T23:55:30.082Z,7.00
2018-05-16T23:58:02.590Z,6.18
